Time,TemperatureF,DewpointF,PressureIn,WindDirection,WindDirectionDegrees,WindSpeedMPH,WindSpeedGustMPH,Humidity,HourlyPrecipIn,Conditions,Clouds,dailyrainin,SoftwareType,DateUTC
2013-03-12 00:00:00,24.9,22.1,29.90,West,265,7.0,9.4,89,0.00,,OVC031,0.00,VWS V14.01,2013-03-12 05:00:00,
2013-03-12 00:10:00,25.7,22.9,29.90,WNW,289,3.0,8.4,89,0.00,,OVC031,0.00,VWS V14.01,2013-03-12 05:10:00,
2013-03-12 00:15:00,25.9,22.8,29.90,WNW,292,7.0,10.5,88,0.00,,OVC031,0.00,VWS V14.01,2013-03-12 05:15:00,
2013-03-12 00:20:00,26.0,22.9,29.90,WNW,282,7.0,10.5,88,0.00,,OVC031,0.00,VWS V14.01,2013-03-12 05:20:00,
2013-03-12 00:25:00,26.2,23.4,29.91,West,274,2.0,8.4,89,0.00,,OVC033,0.00,VWS V14.01,2013-03-12 05:25:00,
2013-03-12 00:30:00,26.2,23.4,29.91,WNW,288,4.0,9.4,89,0.00,,OVC033,0.00,VWS V14.01,2013-03-12 05:30:00,
2013-03-12 00:35:00,26.3,23.5,29.91,NW,311,9.0,10.5,89,0.00,,OVC033,0.00,VWS V14.01,2013-03-12 05:35:00,
2013-03-12 00:40:00,26.4,23.6,29.91,WSW,256,3.0,9.4,89,0.00,,OVC033,0.00,VWS V14.01,2013-03-12 05:40:00,
2013-03-12 00:45:00,26.4,23.6,29.91,West,275,7.0,10.5,89,0.00,,OVC033,0.00,VWS V14.01,2013-03-12 05:45:00,
2013-03-12 00:50:00,26.4,23.6,29.91,WNW,288,2.0,10.5,89,0.00,,OVC033,0.00,VWS V14.01,2013-03-12 05:50:00,
2013-03-12 00:55:00,26.4,23.6,29.90,West,272,2.0,7.3,89,0.00,,OVC033,0.00,VWS V14.01,2013-03-12 05:55:00,
2013-03-12 01:00:00,26.4,23.9,29.91,WNW,294,2.0,7.3,90,0.00,,OVC033,0.00,VWS V14.01,2013-03-12 06:00:00,
2013-03-12 01:10:00,26.6,24.3,29.90,WNW,283,0.0,3.1,91,0.00,,OVC033,0.00,VWS V14.01,2013-03-12 06:10:00,
2013-03-12 01:15:00,26.6,24.3,29.90,WNW,299,2.0,4.2,91,0.00,,OVC033,0.00,VWS V14.01,2013-03-12 06:15:00,
2013-03-12 01:20:00,26.8,24.5,29.90,WNW,284,1.0,6.3,91,0.00,,OVC033,0.00,VWS V14.01,2013-03-12 06:20:00,
2013-03-12 01:30:00,26.9,24.6,29.90,WNW,288,3.0,7.3,91,0.00,,OVC033,0.00,VWS V14.01,2013-03-12 06:30:00,
2013-03-12 01:40:00,27.1,24.8,29.90,WNW,290,3.0,8.4,91,0.00,,OVC033,0.00,VWS V14.01,2013-03-12 06:40:00,
2013-03-12 01:45:00,27.1,24.8,29.90,WSW,254,4.0,6.3,91,0.00,,OVC031,0.00,VWS V14.01,2013-03-12 06:45:00,
2013-03-12 01:55:00,27.3,25.0,29.90,West,279,3.0,8.4,91,0.00,,OVC031,0.00,VWS V14.01,2013-03-12 06:55:00,
2013-03-12 02:00:00,27.3,25.0,29.90,WNW,284,3.0,7.3,91,0.00,,OVC031,0.00,VWS V14.01,2013-03-12 07:00:00,
2013-03-12 02:05:00,27.2,24.9,29.90,WNW,284,0.0,3.1,91,0.00,,OVC029,0.00,VWS V14.01,2013-03-12 07:05:00,
2013-03-12 02:10:00,27.1,25.1,29.90,WNW,284,0.0,1.0,92,0.00,,OVC029,0.00,VWS V14.01,2013-03-12 07:10:00,
2013-03-12 02:15:00,27.0,25.0,29.90,WNW,301,2.0,3.1,92,0.00,,OVC029,0.00,VWS V14.01,2013-03-12 07:15:00,
2013-03-12 02:20:00,27.1,25.4,29.90,West,276,4.0,5.2,93,0.00,,OVC029,0.00,VWS V14.01,2013-03-12 07:20:00,
2013-03-12 02:25:00,27.3,25.5,29.90,West,277,0.0,8.4,93,0.00,,OVC031,0.00,VWS V14.01,2013-03-12 07:25:00,
2013-03-12 02:30:00,27.5,25.8,29.90,WNW,289,0.0,5.2,93,0.00,,OVC031,0.00,VWS V14.01,2013-03-12 07:30:00,
2013-03-12 02:40:00,27.6,25.8,29.90,West,280,0.0,4.2,93,0.00,,OVC031,0.00,VWS V14.01,2013-03-12 07:40:00,
2013-03-12 02:50:00,27.8,26.0,29.90,WNW,296,2.0,2.1,93,0.00,,OVC017,0.00,VWS V14.01,2013-03-12 07:50:00,
2013-03-12 02:55:00,27.8,26.0,29.90,WNW,302,2.0,3.1,93,0.00,,OVC017,0.00,VWS V14.01,2013-03-12 07:55:00,
2013-03-12 03:00:00,27.8,26.0,29.90,WNW,294,2.0,3.1,93,0.00,,OVC017,0.00,VWS V14.01,2013-03-12 08:00:00,
2013-03-12 03:05:00,27.9,26.1,29.90,WNW,300,3.0,5.2,93,0.00,,OVC039,0.00,VWS V14.01,2013-03-12 08:05:00,
2013-03-12 03:10:00,27.9,26.1,29.90,WNW,298,4.0,4.2,93,0.00,,OVC039,0.00,VWS V14.01,2013-03-12 08:10:00,
2013-03-12 03:20:00,27.9,26.1,29.90,WNW,298,4.0,4.2,93,0.00,,OVC039,0.00,VWS V14.01,2013-03-12 08:20:00,
2013-03-12 03:25:00,27.9,26.1,29.90,WNW,298,4.0,4.2,93,0.00,,OVC039,0.00,VWS V14.01,2013-03-12 08:25:00,
2013-03-12 03:30:00,27.9,26.1,29.90,WNW,298,4.0,4.2,93,0.00,,OVC039,0.00,VWS V14.01,2013-03-12 08:30:00,
2013-03-12 03:35:00,27.2,24.9,29.90,NW,304,3.0,12.6,91,0.00,,OVC039,0.00,VWS V14.01,2013-03-12 08:35:00,
2013-03-12 03:45:00,26.9,24.6,29.90,WNW,290,7.0,13.6,91,0.00,,OVC019,0.00,VWS V14.01,2013-03-12 08:45:00,
2013-03-12 03:50:00,26.9,24.6,29.90,NW,304,1.0,9.4,91,0.00,,OVC019,0.00,VWS V14.01,2013-03-12 08:50:00,
2013-03-12 04:00:00,26.6,24.1,29.90,WNW,295,3.0,9.4,90,0.00,,OVC019,0.00,VWS V14.01,2013-03-12 09:00:00,
2013-03-12 04:10:00,26.4,23.9,29.90,WNW,302,2.0,7.3,90,0.00,,OVC021,0.00,VWS V14.01,2013-03-12 09:10:00,
2013-03-12 04:15:00,26.3,23.8,29.90,WNW,300,3.0,4.2,90,0.00,,OVC021,0.00,VWS V14.01,2013-03-12 09:15:00,
2013-03-12 04:20:00,26.3,23.8,29.90,NW,315,1.0,5.2,90,0.00,,OVC021,0.00,VWS V14.01,2013-03-12 09:20:00,
2013-03-12 04:30:00,26.2,23.4,29.90,WNW,290,3.0,9.4,89,0.00,,OVC024,0.00,VWS V14.01,2013-03-12 09:30:00,
2013-03-12 04:35:00,26.1,23.6,29.90,WNW,300,3.0,8.4,90,0.00,,OVC024,0.00,VWS V14.01,2013-03-12 09:35:00,
2013-03-12 04:40:00,26.0,22.9,29.90,NW,306,5.0,11.5,88,0.00,,OVC024,0.00,VWS V14.01,2013-03-12 09:40:00,
2013-03-12 04:45:00,25.8,22.5,29.90,NW,316,8.0,10.5,87,0.00,,,0.00,VWS V14.01,2013-03-12 09:45:00,
2013-03-12 04:50:00,25.6,22.3,29.91,NW,313,9.0,13.6,87,0.00,,,0.00,VWS V14.01,2013-03-12 09:50:00,
2013-03-12 04:55:00,25.4,22.4,29.91,NW,313,6.0,11.5,88,0.00,,,0.00,VWS V14.01,2013-03-12 09:55:00,
2013-03-12 05:00:00,25.1,22.0,29.91,NW,312,11.0,13.6,88,0.00,,,0.00,VWS V14.01,2013-03-12 10:00:00,
2013-03-12 05:05:00,24.8,21.8,29.91,WNW,300,4.0,13.6,88,0.00,,,0.00,VWS V14.01,2013-03-12 10:05:00,
2013-03-12 05:10:00,24.5,21.5,29.92,NW,308,9.0,11.5,88,0.00,,,0.00,VWS V14.01,2013-03-12 10:10:00,
2013-03-12 05:20:00,24.0,21.8,29.92,NW,311,8.0,13.6,91,0.00,,,0.00,VWS V14.01,2013-03-12 10:20:00,
2013-03-12 05:25:00,23.8,21.6,29.92,NW,309,9.0,10.5,91,0.00,,,0.00,VWS V14.01,2013-03-12 10:25:00,
2013-03-12 05:30:00,23.5,21.3,29.92,WNW,302,14.0,14.7,91,0.00,,,0.00,VWS V14.01,2013-03-12 10:30:00,
2013-03-12 05:40:00,23.0,20.8,29.93,NW,308,10.0,15.7,91,0.00,,,0.00,VWS V14.01,2013-03-12 10:40:00,
2013-03-12 05:45:00,22.7,20.5,29.93,NW,305,8.0,13.6,91,0.00,,OVC047,0.00,VWS V14.01,2013-03-12 10:45:00,
2013-03-12 05:50:00,22.6,20.4,29.93,NW,311,9.0,13.6,91,0.00,,OVC047,0.00,VWS V14.01,2013-03-12 10:50:00,
2013-03-12 05:55:00,22.5,20.5,29.94,NW,304,9.0,12.6,92,0.00,,OVC047,0.00,VWS V14.01,2013-03-12 10:55:00,
2013-03-12 06:00:00,22.2,20.2,29.94,NW,313,9.0,13.6,92,0.00,,OVC047,0.00,VWS V14.01,2013-03-12 11:00:00,
2013-03-12 06:10:00,21.4,19.4,29.94,NW,311,12.0,12.6,92,0.00,,,0.00,VWS V14.01,2013-03-12 11:10:00,
2013-03-12 06:15:00,21.1,19.1,29.94,NW,309,11.0,12.6,92,0.00,,,0.00,VWS V14.01,2013-03-12 11:15:00,
2013-03-12 06:20:00,20.9,19.2,29.94,NW,315,9.0,12.6,93,0.00,,,0.00,VWS V14.01,2013-03-12 11:20:00,
2013-03-12 06:30:00,20.7,19.0,29.95,NW,311,12.0,13.6,93,0.00,,OVC055,0.00,VWS V14.01,2013-03-12 11:30:00,
2013-03-12 06:35:00,20.6,18.9,29.95,NW,321,11.0,13.6,93,0.00,,OVC055,0.00,VWS V14.01,2013-03-12 11:35:00,
2013-03-12 06:45:00,19.9,18.2,29.96,NW,308,9.0,11.5,93,0.00,,BKN055,0.00,VWS V14.01,2013-03-12 11:45:00,
2013-03-12 06:55:00,19.5,17.8,29.97,NW,309,5.0,12.6,93,0.00,,BKN055,0.00,VWS V14.01,2013-03-12 11:55:00,
2013-03-12 07:00:00,19.3,17.6,29.97,WNW,302,9.0,11.5,93,0.00,,BKN055,0.00,VWS V14.01,2013-03-12 12:00:00,
2013-03-12 07:05:00,19.0,17.1,29.97,NW,308,7.0,11.5,92,0.00,,OVC044,0.00,VWS V14.01,2013-03-12 12:05:00,
2013-03-12 07:15:00,18.4,16.5,29.97,NW,314,8.0,10.5,92,0.00,,OVC044,0.00,VWS V14.01,2013-03-12 12:15:00,
2013-03-12 07:25:00,17.7,15.5,29.98,NW,309,8.0,10.5,91,0.00,,BKN046,0.00,VWS V14.01,2013-03-12 12:25:00,
2013-03-12 07:30:00,17.3,15.1,29.98,NW,317,5.0,9.4,91,0.00,,BKN046,0.00,VWS V14.01,2013-03-12 12:30:00,
2013-03-12 07:40:00,16.8,14.9,29.98,WNW,290,8.0,10.5,92,0.00,,BKN046,0.00,VWS V14.01,2013-03-12 12:40:00,
2013-03-12 07:45:00,16.7,14.8,29.99,NW,304,8.0,10.5,92,0.00,,SCT050,0.00,VWS V14.01,2013-03-12 12:45:00,
2013-03-12 07:50:00,16.6,14.7,29.99,NW,319,4.0,10.5,92,0.00,,SCT050,0.00,VWS V14.01,2013-03-12 12:50:00,
2013-03-12 07:55:00,16.6,14.4,29.99,NW,313,8.0,12.6,91,0.00,,SCT050,0.00,VWS V14.01,2013-03-12 12:55:00,
2013-03-12 08:00:00,16.4,14.2,29.99,NW,311,8.0,11.5,91,0.00,,SCT050,0.00,VWS V14.01,2013-03-12 13:00:00,
2013-03-12 08:05:00,16.2,14.0,29.99,NW,310,9.0,12.6,91,0.00,,CLR,0.00,VWS V14.01,2013-03-12 13:05:00,
2013-03-12 08:10:00,16.2,14.0,29.99,WNW,302,10.0,13.6,91,0.00,,CLR,0.00,VWS V14.01,2013-03-12 13:10:00,
2013-03-12 08:15:00,16.2,14.0,30.00,NW,314,6.0,11.5,91,0.00,,CLR,0.00,VWS V14.01,2013-03-12 13:15:00,
2013-03-12 08:20:00,16.2,14.0,30.00,WNW,297,8.0,11.5,91,0.00,,CLR,0.00,VWS V14.01,2013-03-12 13:20:00,
2013-03-12 08:25:00,16.2,14.0,30.00,NW,311,6.0,11.5,91,0.00,,CLR,0.00,VWS V14.01,2013-03-12 13:25:00,
2013-03-12 08:30:00,16.2,14.0,30.00,WNW,302,7.0,12.6,91,0.00,,CLR,0.00,VWS V14.01,2013-03-12 13:30:00,
2013-03-12 08:40:00,16.6,14.4,30.01,WNW,300,4.0,10.5,91,0.00,,CLR,0.00,VWS V14.01,2013-03-12 13:40:00,
2013-03-12 09:20:00,17.6,15.4,30.03,NW,318,3.0,9.4,91,0.00,,CLR,0.00,VWS V14.01,2013-03-12 14:20:00,
2013-03-12 09:30:00,17.9,15.7,30.03,NW,311,4.0,8.4,91,0.00,,SCT047,0.00,VWS V14.01,2013-03-12 14:30:00,
2013-03-12 09:35:00,18.2,16.0,30.04,WNW,298,3.0,11.5,91,0.00,,SCT047,0.00,VWS V14.01,2013-03-12 14:35:00,
2013-03-12 09:45:00,18.7,16.3,30.04,WNW,303,4.0,7.3,90,0.00,,,0.00,VWS V14.01,2013-03-12 14:45:00,
2013-03-12 09:55:00,18.9,16.5,30.04,WNW,288,7.0,8.4,90,0.00,,,0.00,VWS V14.01,2013-03-12 14:55:00,
2013-03-12 10:00:00,19.1,16.7,30.05,NW,306,4.0,7.3,90,0.00,,,0.00,VWS V14.01,2013-03-12 15:00:00,
2013-03-12 10:10:00,19.5,17.0,30.05,WNW,299,4.0,9.4,90,0.00,,,0.00,VWS V14.01,2013-03-12 15:10:00,
2013-03-12 10:20:00,19.7,17.2,30.06,NW,316,5.0,11.5,90,0.00,,,0.00,VWS V14.01,2013-03-12 15:20:00,
2013-03-12 10:25:00,19.8,17.4,30.06,NW,309,9.0,14.7,90,0.00,,CLR,0.00,VWS V14.01,2013-03-12 15:25:00,
2013-03-12 10:30:00,20.0,17.5,30.06,NW,318,2.0,13.6,90,0.00,,CLR,0.00,VWS V14.01,2013-03-12 15:30:00,
2013-03-12 10:40:00,20.5,17.8,30.06,NW,311,6.0,11.5,89,0.00,,CLR,0.00,VWS V14.01,2013-03-12 15:40:00,
2013-03-12 10:45:00,20.5,17.8,30.06,NW,319,8.0,13.6,89,0.00,,CLR,0.00,VWS V14.01,2013-03-12 15:45:00,
2013-03-12 10:50:00,20.7,18.0,30.07,NNW,336,6.0,12.6,89,0.00,,CLR,0.00,VWS V14.01,2013-03-12 15:50:00,
2013-03-12 10:55:00,21.0,18.3,30.07,NW,320,5.0,11.5,89,0.00,,CLR,0.00,VWS V14.01,2013-03-12 15:55:00,
2013-03-12 11:00:00,21.2,18.2,30.07,WNW,289,4.0,12.6,88,0.00,,CLR,0.00,VWS V14.01,2013-03-12 16:00:00,
2013-03-12 11:10:00,21.6,18.6,30.08,NW,315,4.0,11.5,88,0.00,,CLR,0.00,VWS V14.01,2013-03-12 16:10:00,
2013-03-12 11:15:00,21.9,18.9,30.08,NW,306,8.0,11.5,88,0.00,,CLR,0.00,VWS V14.01,2013-03-12 16:15:00,
2013-03-12 11:20:00,21.9,18.6,30.08,WNW,283,6.0,13.6,87,0.00,,CLR,0.00,VWS V14.01,2013-03-12 16:20:00,
2013-03-12 11:25:00,21.9,18.6,30.08,NW,309,7.0,15.7,87,0.00,,CLR,0.00,VWS V14.01,2013-03-12 16:25:00,
2013-03-12 11:30:00,22.0,19.0,30.08,NW,318,8.0,9.4,88,0.00,,CLR,0.00,VWS V14.01,2013-03-12 16:30:00,
2013-03-12 11:35:00,22.0,19.0,30.08,NW,309,7.0,14.7,88,0.00,,CLR,0.00,VWS V14.01,2013-03-12 16:35:00,
2013-03-12 11:40:00,22.0,18.7,30.09,NW,318,6.0,14.7,87,0.00,,CLR,0.00,VWS V14.01,2013-03-12 16:40:00,
2013-03-12 11:45:00,22.1,18.8,30.09,NW,312,8.0,14.7,87,0.00,,CLR,0.00,VWS V14.01,2013-03-12 16:45:00,
2013-03-12 11:55:00,22.4,19.4,30.09,NW,306,12.0,12.6,88,0.00,,CLR,0.00,VWS V14.01,2013-03-12 16:55:00,
2013-03-12 12:00:00,22.6,19.3,30.09,WNW,298,7.0,16.8,87,0.00,,CLR,0.00,VWS V14.01,2013-03-12 17:00:00,
2013-03-12 12:05:00,22.8,19.5,30.09,NNW,333,8.0,17.8,87,0.00,,BKN100,0.00,VWS V14.01,2013-03-12 17:05:00,
2013-03-12 12:10:00,22.9,19.6,30.10,WNW,288,5.0,15.7,87,0.00,,BKN100,0.00,VWS V14.01,2013-03-12 17:10:00,
2013-03-12 12:15:00,23.0,20.0,30.09,WNW,298,9.0,14.7,88,0.00,,BKN100,0.00,VWS V14.01,2013-03-12 17:15:00,
2013-03-12 12:20:00,23.0,19.7,30.09,NW,307,10.0,15.7,87,0.00,,BKN100,0.00,VWS V14.01,2013-03-12 17:20:00,
2013-03-12 12:30:00,23.3,20.0,30.10,NW,315,10.0,17.8,87,0.00,,SCT055,0.00,VWS V14.01,2013-03-12 17:30:00,
2013-03-12 12:35:00,23.6,20.3,30.10,WNW,302,12.0,15.7,87,0.00,,SCT055,0.00,VWS V14.01,2013-03-12 17:35:00,
2013-03-12 12:40:00,23.5,20.2,30.10,NW,312,9.0,17.8,87,0.00,,SCT055,0.00,VWS V14.01,2013-03-12 17:40:00,
2013-03-12 12:45:00,23.5,19.9,30.10,NW,309,10.0,16.8,86,0.00,,BKN032,0.00,VWS V14.01,2013-03-12 17:45:00,
2013-03-12 12:50:00,23.6,20.0,30.10,NW,316,6.0,17.8,86,0.00,,BKN032,0.00,VWS V14.01,2013-03-12 17:50:00,
2013-03-12 12:55:00,23.8,20.2,30.10,NW,311,8.0,16.8,86,0.00,,BKN032,0.00,VWS V14.01,2013-03-12 17:55:00,
2013-03-12 13:00:00,24.2,20.9,30.10,NW,316,10.0,12.6,87,0.00,,BKN032,0.00,VWS V14.01,2013-03-12 18:00:00,
2013-03-12 13:05:00,24.2,20.6,30.10,WNW,299,8.0,16.8,86,0.00,,BKN070,0.00,VWS V14.01,2013-03-12 18:05:00,
2013-03-12 13:10:00,24.1,20.5,30.10,WNW,292,9.0,16.8,86,0.00,,BKN070,0.00,VWS V14.01,2013-03-12 18:10:00,
2013-03-12 13:15:00,24.1,20.5,30.10,WNW,292,9.0,9.4,86,0.00,,BKN070,0.00,VWS V14.01,2013-03-12 18:15:00,
2013-03-12 13:20:00,24.6,21.0,30.11,WNW,291,4.0,13.6,86,0.00,,BKN070,0.00,VWS V14.01,2013-03-12 18:20:00,
2013-03-12 13:30:00,24.8,21.2,30.11,NW,309,10.0,15.7,86,0.00,,SCT050,0.00,VWS V14.01,2013-03-12 18:30:00,
2013-03-12 13:35:00,24.6,20.5,30.11,WNW,300,9.0,19.9,84,0.00,,SCT050,0.00,VWS V14.01,2013-03-12 18:35:00,
2013-03-12 13:40:00,24.6,20.5,30.11,NW,310,8.0,17.8,84,0.00,,SCT050,0.00,VWS V14.01,2013-03-12 18:40:00,
2013-03-12 13:45:00,24.7,20.6,30.11,NW,309,7.0,13.6,84,0.00,,BKN100,0.00,VWS V14.01,2013-03-12 18:45:00,
2013-03-12 13:50:00,24.8,20.7,30.11,NW,315,10.0,15.7,84,0.00,,BKN100,0.00,VWS V14.01,2013-03-12 18:50:00,
2013-03-12 13:55:00,24.7,20.3,30.11,NW,317,8.0,16.8,83,0.00,,BKN100,0.00,VWS V14.01,2013-03-12 18:55:00,
2013-03-12 14:00:00,24.5,19.8,30.11,NW,309,15.0,16.8,82,0.00,,BKN100,0.00,VWS V14.01,2013-03-12 19:00:00,
2013-03-12 14:10:00,24.5,19.5,30.11,NW,313,9.0,18.9,81,0.00,,BKN100,0.00,VWS V14.01,2013-03-12 19:10:00,
2013-03-12 14:15:00,24.5,19.5,30.11,NW,313,11.0,17.8,81,0.00,,BKN100,0.00,VWS V14.01,2013-03-12 19:15:00,
2013-03-12 14:20:00,24.7,19.7,30.11,NW,313,5.0,17.8,81,0.00,,BKN100,0.00,VWS V14.01,2013-03-12 19:20:00,
2013-03-12 14:25:00,24.9,19.9,30.11,NW,305,10.0,16.8,81,0.00,,SCT100,0.00,VWS V14.01,2013-03-12 19:25:00,
2013-03-12 14:30:00,24.9,19.9,30.11,NW,306,19.0,19.9,81,0.00,,SCT100,0.00,VWS V14.01,2013-03-12 19:30:00,
2013-03-12 14:40:00,24.9,20.2,30.11,NW,311,15.0,18.9,82,0.00,,SCT100,0.00,VWS V14.01,2013-03-12 19:40:00,
2013-03-12 14:50:00,25.0,20.6,30.11,NW,318,13.0,18.9,83,0.00,,CLR,0.00,VWS V14.01,2013-03-12 19:50:00,
2013-03-12 14:55:00,24.9,20.2,30.11,NW,322,17.0,18.9,82,0.00,,CLR,0.00,VWS V14.01,2013-03-12 19:55:00,
2013-03-12 15:00:00,24.6,20.2,30.12,NW,311,9.0,19.9,83,0.00,,CLR,0.00,VWS V14.01,2013-03-12 20:00:00,
2013-03-12 15:10:00,24.9,20.5,30.12,WNW,282,8.0,18.9,83,0.00,,CLR,0.00,VWS V14.01,2013-03-12 20:10:00,
2013-03-12 15:15:00,25.3,20.9,30.12,WNW,297,8.0,18.9,83,0.00,,CLR,0.00,VWS V14.01,2013-03-12 20:15:00,
2013-03-12 15:20:00,25.2,20.5,30.12,WNW,290,14.0,22.0,82,0.00,,CLR,0.00,VWS V14.01,2013-03-12 20:20:00,
2013-03-12 15:25:00,24.7,20.0,30.12,NW,313,11.0,17.8,82,0.00,,CLR,0.00,VWS V14.01,2013-03-12 20:25:00,
2013-03-12 15:30:00,24.6,20.2,30.12,NW,306,9.0,21.0,83,0.00,,CLR,0.00,VWS V14.01,2013-03-12 20:30:00,
2013-03-12 15:35:00,24.6,20.2,30.13,NW,308,12.0,17.8,83,0.00,,CLR,0.00,VWS V14.01,2013-03-12 20:35:00,
2013-03-12 15:40:00,24.4,20.0,30.13,WNW,294,16.0,17.8,83,0.00,,CLR,0.00,VWS V14.01,2013-03-12 20:40:00,
2013-03-12 15:45:00,24.1,19.7,30.13,NW,315,11.0,19.9,83,0.00,,SCT019,0.00,VWS V14.01,2013-03-12 20:45:00,
2013-03-12 15:50:00,24.1,20.0,30.13,NW,319,16.0,17.8,84,0.00,,SCT019,0.00,VWS V14.01,2013-03-12 20:50:00,
2013-03-12 15:55:00,24.0,19.6,30.13,NW,310,10.0,18.9,83,0.00,,SCT019,0.00,VWS V14.01,2013-03-12 20:55:00,
2013-03-12 16:00:00,24.0,19.9,30.14,NW,310,11.0,19.9,84,0.00,,SCT019,0.00,VWS V14.01,2013-03-12 21:00:00,
2013-03-12 16:05:00,24.2,19.8,30.14,WNW,290,15.0,18.9,83,0.00,,SCT019,0.00,VWS V14.01,2013-03-12 21:05:00,
2013-03-12 16:10:00,24.7,20.3,30.14,WNW,298,7.0,15.7,83,0.00,,SCT019,0.00,VWS V14.01,2013-03-12 21:10:00,
2013-03-12 16:15:00,25.0,20.9,30.14,NW,304,10.0,18.9,84,0.00,,SCT019,0.00,VWS V14.01,2013-03-12 21:15:00,
2013-03-12 16:20:00,25.1,21.2,30.14,NW,309,8.0,14.7,85,0.00,,SCT019,0.00,VWS V14.01,2013-03-12 21:20:00,
2013-03-12 16:30:00,24.7,21.1,30.14,NW,304,11.0,15.7,86,0.00,,SCT017,0.00,VWS V14.01,2013-03-12 21:30:00,
2013-03-12 16:35:00,24.8,21.2,30.14,NW,324,12.0,15.7,86,0.00,,SCT017,0.00,VWS V14.01,2013-03-12 21:35:00,
2013-03-12 16:40:00,24.3,20.2,30.15,WNW,300,18.0,23.1,84,0.00,,SCT017,0.00,VWS V14.01,2013-03-12 21:40:00,
2013-03-12 16:45:00,23.8,19.4,30.15,NW,304,18.0,23.1,83,0.00,,SCT028,0.00,VWS V14.01,2013-03-12 21:45:00,
2013-03-12 16:50:00,24.0,20.1,30.15,WNW,292,13.0,21.0,85,0.00,,SCT028,0.00,VWS V14.01,2013-03-12 21:50:00,
2013-03-12 16:55:00,24.2,20.4,30.15,NW,312,12.0,19.9,85,0.00,,SCT028,0.00,VWS V14.01,2013-03-12 21:55:00,
2013-03-12 17:00:00,24.1,19.7,30.15,NW,309,19.0,23.1,83,0.00,,SCT028,0.00,VWS V14.01,2013-03-12 22:00:00,
2013-03-12 17:05:00,24.2,20.1,30.15,NW,313,14.0,19.9,84,0.00,,BKN026,0.00,VWS V14.01,2013-03-12 22:05:00,
2013-03-12 17:10:00,24.4,20.0,30.15,NW,305,8.0,21.0,83,0.00,,BKN026,0.00,VWS V14.01,2013-03-12 22:10:00,
2013-03-12 17:15:00,24.9,20.8,30.16,NW,319,9.0,16.8,84,0.00,,BKN026,0.00,VWS V14.01,2013-03-12 22:15:00,
2013-03-12 17:20:00,25.0,20.9,30.16,NW,306,7.0,14.7,84,0.00,,BKN026,0.00,VWS V14.01,2013-03-12 22:20:00,
2013-03-12 17:25:00,24.7,20.8,30.16,NW,306,9.0,16.8,85,0.00,,SCT120,0.00,VWS V14.01,2013-03-12 22:25:00,
2013-03-12 17:35:00,23.8,19.7,30.16,NW,319,14.0,21.0,84,0.00,,SCT120,0.00,VWS V14.01,2013-03-12 22:35:00,
2013-03-12 17:40:00,23.6,19.5,30.16,NW,304,13.0,21.0,84,0.00,,SCT120,0.00,VWS V14.01,2013-03-12 22:40:00,
2013-03-12 17:45:00,23.7,19.3,30.17,NW,304,15.0,21.0,83,0.00,,SCT021,0.00,VWS V14.01,2013-03-12 22:45:00,
2013-03-12 17:50:00,23.9,19.8,30.17,NW,311,11.0,19.9,84,0.00,,SCT021,0.00,VWS V14.01,2013-03-12 22:50:00,
2013-03-12 17:55:00,23.7,19.9,30.17,WNW,302,13.0,18.9,85,0.00,,SCT021,0.00,VWS V14.01,2013-03-12 22:55:00,
2013-03-12 18:00:00,23.7,19.9,30.17,NW,318,11.0,17.8,85,0.00,,SCT021,0.00,VWS V14.01,2013-03-12 23:00:00,
2013-03-12 18:05:00,23.8,20.0,30.18,WNW,293,17.0,19.9,85,0.00,,SCT019,0.00,VWS V14.01,2013-03-12 23:05:00,
2013-03-12 18:10:00,23.8,20.0,30.18,WNW,298,11.0,17.8,85,0.00,,SCT019,0.00,VWS V14.01,2013-03-12 23:10:00,
2013-03-12 18:15:00,23.6,19.8,30.18,NW,311,14.0,18.9,85,0.00,,SCT019,0.00,VWS V14.01,2013-03-12 23:15:00,
2013-03-12 18:20:00,23.6,19.8,30.18,NW,310,14.0,18.9,85,0.00,,SCT019,0.00,VWS V14.01,2013-03-12 23:20:00,
2013-03-12 18:25:00,23.5,19.4,30.18,NW,312,17.0,19.9,84,0.00,,BKN019,0.00,VWS V14.01,2013-03-12 23:25:00,
2013-03-12 18:30:00,23.4,19.6,30.18,NW,322,13.0,18.9,85,0.00,,BKN019,0.00,VWS V14.01,2013-03-12 23:30:00,
2013-03-12 18:35:00,23.2,19.4,30.19,NW,311,13.0,19.9,85,0.00,,BKN019,0.00,VWS V14.01,2013-03-12 23:35:00,
2013-03-12 18:40:00,23.1,19.5,30.19,NW,310,12.0,15.7,86,0.00,,BKN019,0.00,VWS V14.01,2013-03-12 23:40:00,
2013-03-12 18:45:00,23.0,19.5,30.19,NW,309,13.0,17.8,86,0.00,,BKN019,0.00,VWS V14.01,2013-03-12 23:45:00,
2013-03-12 18:50:00,22.7,19.1,30.19,NW,306,13.0,17.8,86,0.00,,BKN019,0.00,VWS V14.01,2013-03-12 23:50:00,
2013-03-12 18:55:00,22.4,19.1,30.20,NW,326,11.0,17.8,87,0.00,,BKN019,0.00,VWS V14.01,2013-03-12 23:55:00,
2013-03-12 19:00:00,22.3,19.0,30.20,NW,304,15.0,19.9,87,0.00,,BKN019,0.00,VWS V14.01,2013-03-13 00:00:00,
2013-03-12 19:05:00,22.2,18.9,30.20,NW,309,10.0,19.9,87,0.00,,SCT019,0.00,VWS V14.01,2013-03-13 00:05:00,
2013-03-12 19:10:00,22.0,18.7,30.20,NW,305,10.0,16.8,87,0.00,,SCT019,0.00,VWS V14.01,2013-03-13 00:10:00,
2013-03-12 19:15:00,21.8,18.5,30.21,NW,322,15.0,17.8,87,0.00,,SCT019,0.00,VWS V14.01,2013-03-13 00:15:00,
2013-03-12 19:25:00,21.3,18.0,30.21,NW,312,15.0,17.8,87,0.00,,SCT019,0.00,VWS V14.01,2013-03-13 00:25:00,
2013-03-12 19:30:00,21.1,17.8,30.21,NW,311,14.0,16.8,87,0.00,,SCT019,0.00,VWS V14.01,2013-03-13 00:30:00,
2013-03-12 19:35:00,20.9,17.9,30.22,WNW,302,12.0,16.8,88,0.00,,SCT019,0.00,VWS V14.01,2013-03-13 00:35:00,
2013-03-12 19:40:00,20.8,17.8,30.22,WNW,303,14.0,16.8,88,0.00,,SCT019,0.00,VWS V14.01,2013-03-13 00:40:00,
2013-03-12 19:45:00,20.6,17.6,30.22,NW,315,12.0,15.7,88,0.00,,CLR,0.00,VWS V14.01,2013-03-13 00:45:00,
2013-03-12 19:50:00,20.6,17.6,30.22,NW,324,10.0,15.7,88,0.00,,CLR,0.00,VWS V14.01,2013-03-13 00:50:00,
2013-03-12 19:55:00,20.5,17.5,30.23,NW,326,14.0,15.7,88,0.00,,CLR,0.00,VWS V14.01,2013-03-13 00:55:00,
2013-03-12 20:00:00,20.5,17.5,30.23,NW,306,13.0,14.7,88,0.00,,CLR,0.00,VWS V14.01,2013-03-13 01:00:00,
2013-03-12 20:05:00,20.3,17.3,30.24,NW,318,12.0,14.7,88,0.00,,CLR,0.00,VWS V14.01,2013-03-13 01:05:00,
2013-03-12 20:10:00,20.3,17.6,30.24,WNW,303,11.0,16.8,89,0.00,,CLR,0.00,VWS V14.01,2013-03-13 01:10:00,
2013-03-12 20:15:00,20.2,17.5,30.24,NW,311,14.0,15.7,89,0.00,,CLR,0.00,VWS V14.01,2013-03-13 01:15:00,
2013-03-12 20:25:00,19.9,17.2,30.24,NW,315,11.0,16.8,89,0.00,,CLR,0.00,VWS V14.01,2013-03-13 01:25:00,
2013-03-12 20:30:00,19.7,17.0,30.25,NW,304,12.0,15.7,89,0.00,,CLR,0.00,VWS V14.01,2013-03-13 01:30:00,
2013-03-12 20:35:00,19.7,17.0,30.25,WNW,303,11.0,15.7,89,0.00,,CLR,0.00,VWS V14.01,2013-03-13 01:35:00,
2013-03-12 20:40:00,19.9,17.2,30.25,NW,310,13.0,15.7,89,0.00,,CLR,0.00,VWS V14.01,2013-03-13 01:40:00,
2013-03-12 20:45:00,19.9,17.2,30.25,NW,313,14.0,18.9,89,0.00,,CLR,0.00,VWS V14.01,2013-03-13 01:45:00,
2013-03-12 20:50:00,20.1,17.4,30.25,NW,307,14.0,16.8,89,0.00,,CLR,0.00,VWS V14.01,2013-03-13 01:50:00,
2013-03-12 20:55:00,20.1,17.1,30.25,NW,321,11.0,16.8,88,0.00,,CLR,0.00,VWS V14.01,2013-03-13 01:55:00,
2013-03-12 21:00:00,20.0,17.0,30.26,NW,309,13.0,15.7,88,0.00,,CLR,0.00,VWS V14.01,2013-03-13 02:00:00,
2013-03-12 21:05:00,19.9,16.9,30.26,NW,311,12.0,15.7,88,0.00,,CLR,0.00,VWS V14.01,2013-03-13 02:05:00,
2013-03-12 21:10:00,19.9,17.2,30.26,NW,309,12.0,15.7,89,0.00,,CLR,0.00,VWS V14.01,2013-03-13 02:10:00,
2013-03-12 21:20:00,19.5,16.8,30.26,NW,309,12.0,15.7,89,0.00,,CLR,0.00,VWS V14.01,2013-03-13 02:20:00,
2013-03-12 21:25:00,19.4,16.7,30.27,NW,315,13.0,16.8,89,0.00,,CLR,0.00,VWS V14.01,2013-03-13 02:25:00,
2013-03-12 21:30:00,19.3,16.6,30.27,NW,306,11.0,14.7,89,0.00,,CLR,0.00,VWS V14.01,2013-03-13 02:30:00,
2013-03-12 21:35:00,19.2,16.5,30.27,NW,312,10.0,14.7,89,0.00,,CLR,0.00,VWS V14.01,2013-03-13 02:35:00,
2013-03-12 21:40:00,19.1,16.4,30.27,NW,313,10.0,14.7,89,0.00,,CLR,0.00,VWS V14.01,2013-03-13 02:40:00,
2013-03-12 21:45:00,19.0,16.3,30.27,NW,306,11.0,13.6,89,0.00,,CLR,0.00,VWS V14.01,2013-03-13 02:45:00,
2013-03-12 21:50:00,19.0,16.3,30.27,WNW,296,11.0,14.7,89,0.00,,CLR,0.00,VWS V14.01,2013-03-13 02:50:00,
2013-03-12 21:55:00,19.0,16.3,30.27,NNW,329,12.0,13.6,89,0.00,,CLR,0.00,VWS V14.01,2013-03-13 02:55:00,
2013-03-12 22:00:00,19.1,16.4,30.27,NW,309,10.0,14.7,89,0.00,,CLR,0.00,VWS V14.01,2013-03-13 03:00:00,
2013-03-12 22:05:00,19.0,16.3,30.27,NW,311,8.0,14.7,89,0.00,,CLR,0.00,VWS V14.01,2013-03-13 03:05:00,
2013-03-12 22:10:00,18.8,16.1,30.27,NW,313,9.0,12.6,89,0.00,,CLR,0.00,VWS V14.01,2013-03-13 03:10:00,
2013-03-12 22:20:00,18.5,15.8,30.28,WNW,299,8.0,12.6,89,0.00,,CLR,0.00,VWS V14.01,2013-03-13 03:20:00,
2013-03-12 22:25:00,18.3,15.6,30.28,WNW,290,8.0,11.5,89,0.00,,CLR,0.00,VWS V14.01,2013-03-13 03:25:00,
2013-03-12 22:30:00,18.3,15.6,30.28,NW,323,9.0,12.6,89,0.00,,CLR,0.00,VWS V14.01,2013-03-13 03:30:00,
2013-03-12 22:35:00,18.2,15.5,30.28,NW,311,9.0,11.5,89,0.00,,CLR,0.00,VWS V14.01,2013-03-13 03:35:00,
2013-03-12 22:40:00,18.2,15.8,30.28,WNW,299,10.0,11.5,90,0.00,,CLR,0.00,VWS V14.01,2013-03-13 03:40:00,
2013-03-12 22:45:00,18.2,15.5,30.29,NW,309,10.0,12.6,89,0.00,,CLR,0.00,VWS V14.01,2013-03-13 03:45:00,
2013-03-12 22:55:00,17.9,15.2,30.29,NW,306,10.0,12.6,89,0.00,,CLR,0.00,VWS V14.01,2013-03-13 03:55:00,
2013-03-12 23:00:00,17.5,14.8,30.29,NW,311,8.0,11.5,89,0.00,,CLR,0.00,VWS V14.01,2013-03-13 04:00:00,
2013-03-12 23:05:00,17.2,14.5,30.29,NW,311,10.0,11.5,89,0.00,,CLR,0.00,VWS V14.01,2013-03-13 04:05:00,
2013-03-12 23:10:00,17.2,14.8,30.29,NW,306,10.0,12.6,90,0.00,,CLR,0.00,VWS V14.01,2013-03-13 04:10:00,
2013-03-12 23:15:00,17.3,14.9,30.30,WNW,303,12.0,13.6,90,0.00,,CLR,0.00,VWS V14.01,2013-03-13 04:15:00,
2013-03-12 23:20:00,17.5,15.1,30.30,NW,316,11.0,14.7,90,0.00,,CLR,0.00,VWS V14.01,2013-03-13 04:20:00,
2013-03-12 23:25:00,17.6,15.2,30.30,WNW,302,10.0,13.6,90,0.00,,CLR,0.00,VWS V14.01,2013-03-13 04:25:00,
2013-03-12 23:30:00,17.5,14.8,30.30,NW,315,9.0,13.6,89,0.00,,CLR,0.00,VWS V14.01,2013-03-13 04:30:00,
2013-03-12 23:40:00,17.2,14.5,30.30,NW,311,6.0,13.6,89,0.00,,CLR,0.00,VWS V14.01,2013-03-13 04:40:00,
2013-03-12 23:45:00,17.2,14.8,30.31,NW,305,10.0,13.6,90,0.00,,CLR,0.00,VWS V14.01,2013-03-13 04:45:00,
2013-03-12 23:50:00,17.1,14.7,30.30,NW,316,9.0,12.6,90,0.00,,CLR,0.00,VWS V14.01,2013-03-13 04:50:00,
2013-03-12 23:55:00,17.1,14.7,30.31,NW,313,9.0,12.6,90,0.00,,CLR,0.00,VWS V14.01,2013-03-13 04:55:00,